Time;durP1;ratioP1;P1;durP2;ratioP2;P2;SDS_P1;SDS_P2;PMS_P1;PMS_P2;Temp;Humidity;BMP_temperature;BMP_pressure;BME280_temperature;BME280_humidity;BME280_pressure;Samples;Min_cycle;Max_cycle;Signal;HPM_P1;HPM_P2
2022/03/16 00:00:49;;;;;;;1.55;1.20;;;;;;;0.26;70.22;100933.41;5103055;28;20066;-80
2022/03/16 00:03:21;;;;;;;1.70;1.08;;;;;;;0.40;70.35;100933.91;5102926;28;20044;-79
2022/03/16 00:05:52;;;;;;;2.20;1.38;;;;;;;0.30;69.44;100916.41;5102991;28;20263;-78
2022/03/16 00:08:23;;;;;;;1.48;1.20;;;;;;;0.64;68.94;100939.03;5102899;28;20051;-79
2022/03/16 00:10:55;;;;;;;1.45;1.20;;;;;;;0.66;68.13;100910.81;5102959;28;20044;-78
2022/03/16 00:13:26;;;;;;;1.92;1.13;;;;;;;0.83;67.57;100941.41;5102692;28;20088;-78
2022/03/16 00:15:59;;;;;;;1.50;1.27;;;;;;;0.90;67.23;100947.66;5102879;28;20071;-78
2022/03/16 00:18:29;;;;;;;1.38;1.27;;;;;;;1.07;67.08;100940.47;5102028;28;20105;-80
2022/03/16 00:21:00;;;;;;;2.65;1.50;;;;;;;1.06;66.82;100907.84;5102570;28;20374;-81
2022/03/16 00:23:31;;;;;;;2.55;1.20;;;;;;;1.29;64.67;100942.91;5102539;28;20063;-84
2022/03/16 00:26:04;;;;;;;2.15;1.58;;;;;;;1.23;64.32;100942.75;5102643;28;20080;-83
2022/03/16 00:28:34;;;;;;;1.60;1.23;;;;;;;1.18;64.03;100915.97;5102659;28;20044;-81
2022/03/16 00:31:05;;;;;;;1.38;1.27;;;;;;;1.24;63.88;100934.19;5102389;28;20293;-82
2022/03/16 00:33:36;;;;;;;5.68;2.35;;;;;;;1.19;64.52;100919.41;5102443;28;20048;-82
2022/03/16 00:36:07;;;;;;;2.00;1.30;;;;;;;1.08;65.29;100901.06;5102546;28;20081;-80
2022/03/16 00:38:40;;;;;;;2.05;1.40;;;;;;;1.25;65.28;100946.25;5102411;28;20240;-82
2022/03/16 00:41:12;;;;;;;2.35;1.40;;;;;;;0.97;65.08;100933.28;5102545;28;20111;-84
2022/03/16 00:43:44;;;;;;;2.22;1.20;;;;;;;1.00;66.03;100939.41;5102516;28;20170;-83
2022/03/16 00:46:15;;;;;;;1.65;1.20;;;;;;;0.74;65.03;100897.38;5102519;28;20066;-84
2022/03/16 00:48:46;;;;;;;2.28;1.55;;;;;;;0.82;65.16;100924.25;5102578;28;20059;-84
2022/03/16 00:51:16;;;;;;;1.60;1.10;;;;;;;0.77;65.64;100941.19;5102289;28;20111;-85
2022/03/16 00:53:47;;;;;;;3.15;1.20;;;;;;;0.62;66.36;100889.22;5102236;28;20082;-87
2022/03/16 00:56:19;;;;;;;4.10;1.42;;;;;;;1.03;65.34;100941.22;5102126;28;20367;-86
2022/03/16 00:58:53;;;;;;;1.65;1.45;;;;;;;1.01;66.08;100917.13;5102230;28;20294;-85
2022/03/16 01:01:24;;;;;;;3.00;1.30;;;;;;;1.19;65.79;100919.41;5102063;28;20068;-85
2022/03/16 01:03:56;;;;;;;1.40;1.10;;;;;;;1.21;64.04;100928.94;5102350;28;20069;-85
2022/03/16 01:06:29;;;;;;;2.70;1.35;;;;;;;1.41;64.55;100942.44;5102086;28;20477;-84
2022/03/16 01:08:59;;;;;;;1.77;1.60;;;;;;;1.53;64.22;100936.81;5102228;28;20087;-84
2022/03/16 01:11:33;;;;;;;1.90;1.02;;;;;;;1.53;63.66;100931.66;5102085;28;20048;-87
2022/03/16 01:14:05;;;;;;;3.42;1.40;;;;;;;1.38;63.36;100934.63;5102238;28;20059;-86
2022/03/16 01:16:38;;;;;;;2.20;1.30;;;;;;;1.62;64.01;100941.34;5102045;28;20239;-86
2022/03/16 01:19:12;;;;;;;2.95;1.20;;;;;;;1.60;63.69;100923.28;5102048;28;20051;-85
2022/03/16 01:21:46;;;;;;;2.60;1.50;;;;;;;1.59;63.74;100957.59;5102126;28;20244;-86
2022/03/16 01:24:17;;;;;;;2.92;1.23;;;;;;;0.94;64.58;100856.00;5101876;28;20043;-83
2022/03/16 01:26:49;;;;;;;2.10;1.27;;;;;;;1.23;65.10;100952.16;5101890;28;20112;-86
2022/03/16 01:29:20;;;;;;;1.98;1.40;;;;;;;1.17;65.25;100937.38;5104292;28;20052;-82
2022/03/16 01:31:50;;;;;;;1.90;1.27;;;;;;;1.15;65.79;100949.34;5105715;28;20356;-83
2022/03/16 01:34:22;;;;;;;2.42;1.30;;;;;;;0.92;65.89;100898.78;5105804;28;20052;-83
2022/03/16 01:36:53;;;;;;;1.40;1.30;;;;;;;1.38;65.18;100941.47;5106076;28;20267;-83
2022/03/16 01:39:24;;;;;;;1.75;1.23;;;;;;;1.49;64.83;100915.22;5105979;28;20107;-83
2022/03/16 01:41:56;;;;;;;1.20;1.10;;;;;;;1.62;64.96;100937.09;5105781;28;20048;-82
2022/03/16 01:44:44;;;;;;;3.03;1.20;;;;;;;1.56;63.80;100900.84;5104563;28;20040;-81
2022/03/16 01:47:16;;;;;;;2.00;1.23;;;;;;;1.55;64.48;100904.25;5104645;28;20051;-84
2022/03/16 01:49:48;;;;;;;1.92;1.30;;;;;;;1.44;63.39;100905.63;5102046;28;20098;-82
2022/03/16 01:52:21;;;;;;;1.20;1.10;;;;;;;1.38;64.00;100900.28;5105398;28;20078;-80
2022/03/16 01:54:52;;;;;;;1.77;1.20;;;;;;;1.79;64.85;100929.88;5105430;28;20085;-80
2022/03/16 01:57:25;;;;;;;1.20;1.10;;;;;;;1.85;63.79;100931.78;5105102;28;20378;-80
2022/03/16 01:59:56;;;;;;;1.67;1.20;;;;;;;1.88;64.23;100934.44;5104917;28;20088;-80
2022/03/16 02:02:27;;;;;;;1.48;1.30;;;;;;;1.88;64.07;100934.44;5105170;28;20048;-80
2022/03/16 02:04:58;;;;;;;1.20;1.10;;;;;;;1.87;63.57;100927.50;5105441;28;20044;-80
2022/03/16 02:07:28;;;;;;;1.90;1.20;;;;;;;1.67;63.45;100935.53;5104540;28;20083;-80
2022/03/16 02:10:01;;;;;;;5.13;1.45;;;;;;;1.41;63.39;100910.69;5105311;28;20044;-80
2022/03/16 02:12:44;;;;;;;1.90;1.10;;;;;;;1.82;63.16;100936.81;5104014;28;20056;-80
2022/03/16 02:15:15;;;;;;;1.48;1.20;;;;;;;1.97;63.61;100939.84;5085255;28;20044;-80
2022/03/16 02:17:46;;;;;;;1.23;1.13;;;;;;;1.93;62.70;100932.84;5084998;28;20055;-80
2022/03/16 02:20:17;;;;;;;1.02;1.00;;;;;;;1.94;63.09;100939.75;5085157;28;20091;-80
2022/03/16 02:23:00;;;;;;;2.08;1.10;;;;;;;1.90;62.51;100930.19;5084898;28;20050;-80
2022/03/16 02:25:32;;;;;;;1.92;1.00;;;;;;;1.91;63.26;100939.66;5085148;28;20079;-81
2022/03/16 02:28:25;;;;;;;1.40;1.15;;;;;;;1.01;63.13;100825.34;5085433;28;20044;-82
2022/03/16 02:31:29;;;;;;;1.85;1.10;;;;;;;1.42;63.78;100884.97;5090511;28;20082;-80
2022/03/16 02:34:00;;;;;;;1.25;1.00;;;;;;;1.78;63.41;100927.25;5100481;28;20048;-81
2022/03/16 02:36:31;;;;;;;0.90;0.90;;;;;;;1.86;62.77;100924.06;5089311;28;20143;-82
2022/03/16 02:39:06;;;;;;;1.20;1.02;;;;;;;1.92;63.13;100915.63;5088717;28;20035;-81
2022/03/16 02:41:36;;;;;;;1.05;0.90;;;;;;;1.83;62.26;100920.53;5090667;28;20111;-81
2022/03/16 02:44:09;;;;;;;1.40;1.10;;;;;;;2.01;61.89;100909.88;5091696;28;20054;-81
2022/03/16 02:46:40;;;;;;;1.20;1.10;;;;;;;2.06;60.97;100919.50;5091911;28;20059;-81
2022/03/16 02:49:11;;;;;;;1.58;1.30;;;;;;;2.07;60.33;100916.09;5093819;28;20124;-81
2022/03/16 02:51:41;;;;;;;2.25;1.00;;;;;;;2.14;60.92;100912.84;5091750;28;20063;-81
2022/03/16 02:54:14;;;;;;;1.33;1.00;;;;;;;1.94;61.22;100898.50;5091396;28;20105;-81
2022/03/16 02:56:46;;;;;;;1.75;1.10;;;;;;;1.97;61.64;100897.72;5090924;28;20332;-80
2022/03/16 02:59:17;;;;;;;1.00;0.93;;;;;;;2.01;61.78;100910.75;5092257;28;20055;-81
2022/03/16 03:01:48;;;;;;;1.80;1.08;;;;;;;1.89;60.05;100897.50;5091455;28;20076;-81
2022/03/16 03:04:19;;;;;;;1.30;1.20;;;;;;;1.40;60.42;100878.00;5091210;28;20064;-81
2022/03/16 03:06:50;;;;;;;1.70;1.10;;;;;;;1.32;61.08;100906.09;5090682;28;20326;-81
2022/03/16 03:09:22;;;;;;;1.33;1.10;;;;;;;1.24;60.61;100892.13;5090887;28;20040;-80
2022/03/16 03:11:53;;;;;;;1.13;1.00;;;;;;;1.07;62.71;100852.97;5090731;28;20425;-80
2022/03/16 03:14:24;;;;;;;1.52;1.08;;;;;;;1.32;61.08;100894.94;5090260;28;20045;-80
2022/03/16 03:16:55;;;;;;;1.60;1.30;;;;;;;1.18;60.66;100872.22;5090422;28;20052;-80
2022/03/16 03:19:28;;;;;;;2.08;1.42;;;;;;;1.23;59.80;100880.94;5090375;28;20073;-80
2022/03/16 03:21:59;;;;;;;1.20;1.10;;;;;;;1.32;58.08;100885.50;5091580;28;20071;-80
2022/03/16 03:24:31;;;;;;;1.55;1.02;;;;;;;1.41;58.87;100884.91;5090699;28;20953;-80
2022/03/16 03:27:02;;;;;;;2.10;1.00;;;;;;;1.50;60.94;100890.38;5091006;28;20079;-80
2022/03/16 03:29:33;;;;;;;1.08;0.85;;;;;;;1.29;62.71;100891.44;5090445;28;20060;-80
2022/03/16 03:32:04;;;;;;;2.78;1.10;;;;;;;1.11;62.62;100879.69;5090107;28;20048;-80
2022/03/16 03:34:35;;;;;;;1.73;1.20;;;;;;;1.34;64.17;100878.69;5090476;28;20079;-80
2022/03/16 03:37:05;;;;;;;5.18;2.50;;;;;;;1.64;63.25;100889.06;5089735;28;20059;-80
2022/03/16 03:39:38;;;;;;;0.98;0.98;;;;;;;1.83;62.65;100884.47;5090201;28;20075;-80
2022/03/16 03:42:09;;;;;;;1.10;1.00;;;;;;;2.16;61.94;100885.41;5090477;28;20055;-80
2022/03/16 03:44:40;;;;;;;1.95;1.48;;;;;;;2.47;60.76;100881.09;5090497;28;20084;-80
2022/03/16 03:47:11;;;;;;;1.10;1.00;;;;;;;2.34;59.88;100873.84;5088195;28;20076;-80
2022/03/16 03:49:45;;;;;;;1.08;1.00;;;;;;;2.08;59.51;100855.97;5086885;28;20076;-84
2022/03/16 03:52:23;;;;;;;1.13;1.08;;;;;;;2.01;59.24;100859.19;5100258;28;20055;-84
2022/03/16 03:54:55;;;;;;;1.58;1.20;;;;;;;1.73;58.60;100832.66;5085626;28;20083;-84
2022/03/16 03:57:26;;;;;;;3.95;1.40;;;;;;;1.78;56.63;100875.72;5101044;28;20108;-85
2022/03/16 03:59:57;;;;;;;1.10;1.00;;;;;;;1.55;57.16;100875.91;5094392;28;20048;-86
2022/03/16 04:02:27;;;;;;;1.50;1.30;;;;;;;0.95;56.63;100863.78;5083093;28;20328;-86
2022/03/16 04:04:58;;;;;;;1.23;1.00;;;;;;;0.99;57.54;100875.03;5083064;28;20076;-86
2022/03/16 04:07:29;;;;;;;1.35;1.10;;;;;;;0.92;58.71;100875.63;5083087;28;20130;-86
2022/03/16 04:10:01;;;;;;;2.38;1.20;;;;;;;0.88;58.63;100866.09;5082814;28;20119;-86
2022/03/16 04:12:32;;;;;;;1.13;1.08;;;;;;;0.13;57.67;100738.50;5082746;28;20049;-86
2022/03/16 04:15:03;;;;;;;1.80;1.30;;;;;;;0.64;57.93;100836.16;5082732;28;20111;-86
2022/03/16 04:17:37;;;;;;;2.25;1.42;;;;;;;0.83;59.10;100869.38;5082513;28;20072;-86
2022/03/16 04:20:22;;;;;;;1.45;1.02;;;;;;;0.17;58.90;100796.88;5082673;28;20055;-86
2022/03/16 04:22:52;;;;;;;1.33;1.10;;;;;;;0.68;59.43;100863.75;5082439;28;20249;-86
2022/03/16 04:25:25;;;;;;;1.50;1.40;;;;;;;0.71;59.64;100876.69;5082380;28;20306;-87
2022/03/16 04:27:56;;;;;;;1.45;1.35;;;;;;;0.89;59.16;100867.84;5082460;28;20052;-86
2022/03/16 04:30:26;;;;;;;2.53;1.27;;;;;;;0.94;58.27;100850.84;5082336;28;20044;-86
2022/03/16 04:32:59;;;;;;;1.02;1.00;;;;;;;0.91;59.18;100871.34;5082385;28;20091;-85
2022/03/16 04:35:36;;;;;;;1.60;1.35;;;;;;;-0.04;58.74;100705.41;5082414;28;20082;-85
2022/03/16 04:38:08;;;;;;;0.95;0.95;;;;;;;0.92;58.01;100862.78;5082141;28;20098;-84
2022/03/16 04:40:40;;;;;;;1.65;1.30;;;;;;;0.72;58.44;100863.00;5082238;28;20380;-84
2022/03/16 04:43:11;;;;;;;3.15;1.30;;;;;;;0.60;59.63;100849.72;5082042;28;20080;-85
2022/03/16 04:45:43;;;;;;;1.10;1.10;;;;;;;0.63;59.72;100861.00;5082208;28;20052;-85
2022/03/16 04:48:16;;;;;;;1.30;1.20;;;;;;;0.66;59.38;100869.66;5082270;28;20084;-85
2022/03/16 04:50:47;;;;;;;1.77;1.35;;;;;;;0.49;59.41;100867.38;5082147;28;20045;-86
2022/03/16 04:53:18;;;;;;;1.42;1.17;;;;;;;0.60;59.52;100870.31;5082144;28;20075;-85
2022/03/16 04:55:54;;;;;;;1.45;1.30;;;;;;;0.47;58.73;100821.88;5082254;28;20044;-86
2022/03/16 04:58:24;;;;;;;1.90;1.30;;;;;;;0.63;57.93;100857.56;5082042;28;20094;-86
2022/03/16 05:00:55;;;;;;;2.40;1.30;;;;;;;0.45;58.87;100844.06;5082196;28;20283;-86
2022/03/16 05:03:26;;;;;;;2.53;1.30;;;;;;;0.58;58.96;100856.53;5081718;28;20049;-86
2022/03/16 05:05:57;;;;;;;1.40;1.30;;;;;;;0.66;58.72;100862.81;5081941;28;20052;-86
2022/03/16 05:08:28;;;;;;;1.50;1.40;;;;;;;0.72;59.04;100860.41;5081948;28;20079;-86
2022/03/16 05:11:00;;;;;;;1.50;1.20;;;;;;;0.63;59.17;100860.13;5081946;28;20325;-86
2022/03/16 05:13:31;;;;;;;3.28;1.20;;;;;;;0.54;59.13;100854.69;5081832;28;20359;-86
2022/03/16 05:16:06;;;;;;;4.03;1.33;;;;;;;0.47;59.33;100857.84;5081918;28;20052;-87
2022/03/16 05:18:40;;;;;;;2.45;1.05;;;;;;;0.30;59.73;100855.59;5081817;28;20051;-86
2022/03/16 05:21:11;;;;;;;1.10;1.10;;;;;;;-0.45;59.57;100748.50;5081866;28;20236;-86
2022/03/16 05:23:44;;;;;;;1.30;1.20;;;;;;;0.16;59.61;100855.09;5081598;28;20091;-86
2022/03/16 05:26:16;;;;;;;1.30;1.20;;;;;;;0.12;59.71;100852.38;5081876;28;20051;-87
2022/03/16 05:28:47;;;;;;;1.58;1.10;;;;;;;0.12;60.13;100849.81;5081780;28;20048;-87
2022/03/16 05:31:18;;;;;;;1.45;1.30;;;;;;;0.09;59.79;100844.56;5081734;28;20052;-86
2022/03/16 05:33:49;;;;;;;4.47;1.25;;;;;;;0.11;59.35;100850.63;5081560;28;20051;-85
2022/03/16 05:36:19;;;;;;;1.45;1.35;;;;;;;-0.10;59.56;100831.06;5081830;28;20048;-87
2022/03/16 05:38:50;;;;;;;1.90;1.20;;;;;;;-0.52;60.03;100772.19;5081572;28;20082;-86
2022/03/16 05:41:24;;;;;;;1.50;1.40;;;;;;;-0.03;60.50;100825.31;5081556;28;20111;-86
2022/03/16 05:43:55;;;;;;;1.50;1.40;;;;;;;0.10;60.83;100836.03;5081634;28;20328;-86
2022/03/16 05:46:26;;;;;;;1.40;1.30;;;;;;;0.02;59.82;100845.16;5081575;28;20040;-86
2022/03/16 05:48:57;;;;;;;1.95;1.30;;;;;;;-0.23;60.19;100810.88;5081887;28;20052;-86
2022/03/16 05:51:29;;;;;;;1.63;1.42;;;;;;;-0.06;60.46;100821.78;5081379;28;20044;-85
2022/03/16 05:54:03;;;;;;;4.38;1.40;;;;;;;0.23;60.26;100833.06;5081394;28;20087;-85
2022/03/16 05:56:41;;;;;;;2.70;1.50;;;;;;;-0.48;60.72;100732.09;5081357;28;20083;-86
2022/03/16 05:59:13;;;;;;;1.40;1.25;;;;;;;-0.11;61.67;100771.94;5081372;28;20087;-86
2022/03/16 06:01:44;;;;;;;2.03;1.33;;;;;;;-0.15;61.40;100794.06;5081381;28;20051;-86
2022/03/16 06:04:15;;;;;;;1.50;1.35;;;;;;;0.13;61.76;100831.00;5081221;28;20067;-86
2022/03/16 06:06:47;;;;;;;2.55;1.40;;;;;;;0.08;59.99;100832.53;5081522;28;20279;-86
2022/03/16 06:09:19;;;;;;;2.47;1.70;;;;;;;0.17;61.11;100849.13;5081298;28;20075;-85
2022/03/16 06:11:52;;;;;;;1.42;1.30;;;;;;;0.25;60.92;100834.00;5081121;28;20066;-86
2022/03/16 06:14:23;;;;;;;1.58;1.45;;;;;;;-0.06;61.37;100781.53;5081360;28;20382;-85
2022/03/16 06:16:55;;;;;;;2.17;1.33;;;;;;;0.26;60.07;100830.59;5084316;28;20052;-85
2022/03/16 06:19:26;;;;;;;2.33;1.58;;;;;;;0.19;59.96;100837.22;5084974;28;20094;-86
2022/03/16 06:21:57;;;;;;;2.20;2.00;;;;;;;-0.33;59.50;100783.13;5084619;28;20379;-86
2022/03/16 06:24:31;;;;;;;1.55;1.45;;;;;;;0.23;58.81;100838.22;5084388;28;20104;-85
2022/03/16 06:27:05;;;;;;;1.85;1.52;;;;;;;0.23;58.23;100838.22;5084759;28;20063;-86
2022/03/16 06:29:35;;;;;;;2.58;1.50;;;;;;;0.28;59.04;100836.69;5084681;28;20048;-85
2022/03/16 06:32:07;;;;;;;2.03;1.48;;;;;;;0.17;58.18;100827.72;5084690;28;20048;-85
2022/03/16 06:34:38;;;;;;;2.10;1.60;;;;;;;0.12;58.86;100839.53;5084612;28;20116;-85
2022/03/16 06:37:09;;;;;;;2.08;1.52;;;;;;;-0.47;59.46;100734.72;5084579;28;20045;-85
2022/03/16 06:39:45;;;;;;;1.45;1.35;;;;;;;0.00;59.18;100842.56;5084558;28;20052;-86
2022/03/16 06:42:20;;;;;;;1.48;1.38;;;;;;;-0.26;59.34;100813.34;5084601;28;20051;-86
2022/03/16 06:44:50;;;;;;;2.08;1.50;;;;;;;-0.23;59.35;100841.69;5084545;28;20041;-86
2022/03/16 06:47:21;;;;;;;2.20;1.60;;;;;;;-0.30;60.03;100839.72;5084483;28;20162;-86
2022/03/16 06:49:56;;;;;;;1.58;1.48;;;;;;;-0.34;60.54;100848.16;5084574;28;20044;-85
2022/03/16 06:52:28;;;;;;;1.35;1.25;;;;;;;-0.52;60.32;100838.94;5084284;28;20405;-86
2022/03/16 06:54:59;;;;;;;1.85;1.40;;;;;;;-0.49;60.38;100844.19;5084153;28;20079;-85
2022/03/16 06:57:33;;;;;;;2.30;1.60;;;;;;;-0.56;60.52;100842.19;5084104;28;20053;-86
2022/03/16 07:00:06;;;;;;;1.85;1.48;;;;;;;-0.58;60.35;100854.09;5084292;28;20356;-86
2022/03/16 07:02:51;;;;;;;2.35;1.52;;;;;;;-0.64;60.11;100848.75;5066841;28;20049;-86
2022/03/16 07:05:22;;;;;;;1.58;1.25;;;;;;;-1.62;60.97;100732.03;5084063;28;20094;-86
2022/03/16 07:07:53;;;;;;;1.70;1.60;;;;;;;-0.84;61.80;100854.81;5083989;28;20082;-85
2022/03/16 07:10:24;;;;;;;2.50;1.58;;;;;;;-0.92;61.38;100842.56;5084223;28;20090;-85
2022/03/16 07:12:57;;;;;;;2.85;1.75;;;;;;;-0.86;60.98;100852.16;5098896;28;20072;-85
2022/03/16 07:15:31;;;;;;;4.22;1.85;;;;;;;-1.07;62.16;100813.75;5103222;28;20052;-86
2022/03/16 07:18:03;;;;;;;1.88;1.67;;;;;;;-0.83;63.08;100851.41;5103588;28;20345;-86
2022/03/16 07:20:34;;;;;;;2.38;1.77;;;;;;;-1.11;62.54;100856.31;5104018;28;20051;-85
2022/03/16 07:23:06;;;;;;;2.22;1.70;;;;;;;-1.03;62.27;100848.94;5103963;28;20359;-87
2022/03/16 07:25:39;;;;;;;2.90;1.33;;;;;;;-1.37;61.65;100837.34;5103889;28;20111;-86
2022/03/16 07:28:14;;;;;;;1.92;1.50;;;;;;;-2.06;62.68;100749.03;5102542;28;20048;-86
2022/03/16 07:30:45;;;;;;;3.65;1.92;;;;;;;-1.16;63.86;100869.78;5094799;28;20044;-86
2022/03/16 07:33:19;;;;;;;3.28;1.60;;;;;;;-1.16;64.11;100874.91;5103411;28;20216;-86
2022/03/16 07:39:20;;;;;;;1.50;1.40;;;;;;;-2.20;65.89;100703.25;5102411;28;20102;-83
2022/03/16 07:41:51;;;;;;;1.65;1.52;;;;;;;-1.31;66.73;100863.19;5092024;28;20075;-82
2022/03/16 07:44:32;;;;;;;2.38;1.35;;;;;;;-1.20;67.34;100885.84;5089350;28;20059;-82
2022/03/16 07:47:10;;;;;;;2.88;1.40;;;;;;;-2.31;66.87;100701.91;5089423;28;20047;-81
2022/03/16 07:49:41;;;;;;;2.00;1.45;;;;;;;-1.34;67.42;100883.59;5089353;28;20086;-83
2022/03/16 07:55:36;;;;;;;1.23;1.10;;;;;;;-1.75;68.44;100869.03;5095854;28;20048;-86
2022/03/16 07:58:07;;;;;;;1.42;1.33;;;;;;;-1.63;69.10;100887.50;5096034;28;20049;-81
2022/03/16 08:00:40;;;;;;;1.40;1.30;;;;;;;-1.74;69.29;100897.28;5097018;28;20067;-80
2022/03/16 08:03:13;;;;;;;2.05;1.20;;;;;;;-1.84;69.71;100902.81;5096159;28;20277;-82
2022/03/16 08:05:45;;;;;;;2.15;1.10;;;;;;;-1.90;70.29;100907.66;5094522;28;20051;-81
2022/03/16 08:08:17;;;;;;;1.60;1.50;;;;;;;-1.95;70.62;100911.69;5096217;28;20071;-84
2022/03/16 08:10:48;;;;;;;1.33;1.23;;;;;;;-2.04;71.34;100906.19;5092813;28;20055;-84
2022/03/16 08:13:21;;;;;;;1.88;1.30;;;;;;;-2.54;71.73;100845.91;5093092;28;20064;-83
2022/03/16 08:15:53;;;;;;;1.95;1.20;;;;;;;-2.16;71.45;100916.75;5100445;28;20052;-83
2022/03/16 08:18:24;;;;;;;2.53;1.30;;;;;;;-2.30;71.63;100900.75;5102894;28;20044;-83
2022/03/16 08:20:56;;;;;;;2.35;1.40;;;;;;;-2.29;72.15;100915.31;5097131;28;20040;-81
2022/03/16 08:23:26;;;;;;;1.67;1.30;;;;;;;-2.33;72.11;100918.53;5090910;28;20063;-83
2022/03/16 08:25:58;;;;;;;2.03;1.30;;;;;;;-2.33;72.47;100921.09;5091315;28;20076;-83
2022/03/16 08:28:30;;;;;;;2.30;1.50;;;;;;;-2.58;72.16;100882.38;5101842;28;20040;-83
2022/03/16 08:31:03;;;;;;;2.40;1.38;;;;;;;-2.39;72.52;100928.50;5103892;28;20048;-83
2022/03/16 08:33:33;;;;;;;1.90;1.30;;;;;;;-2.44;72.89;100929.97;5096976;28;20470;-81
2022/03/16 08:36:07;;;;;;;2.72;1.63;;;;;;;-2.50;73.88;100922.00;5088425;28;20103;-81
2022/03/16 08:38:40;;;;;;;2.70;1.40;;;;;;;-2.59;74.18;100919.03;5100068;28;20111;-80
2022/03/16 08:41:12;;;;;;;5.55;1.35;;;;;;;-2.71;75.04;100921.88;5094362;28;20051;-80
2022/03/16 08:43:42;;;;;;;1.40;1.30;;;;;;;-2.77;75.54;100919.91;5093074;28;20092;-81
2022/03/16 08:46:15;;;;;;;1.73;1.40;;;;;;;-2.83;76.12;100920.47;5100683;28;20082;-80
2022/03/16 08:48:46;;;;;;;2.92;1.65;;;;;;;-2.88;75.86;100921.06;5097427;28;20411;-81
2022/03/16 08:51:17;;;;;;;2.78;1.42;;;;;;;-3.18;76.20;100880.41;5101182;28;20086;-81
2022/03/16 08:53:49;;;;;;;1.85;1.50;;;;;;;-2.99;76.41;100935.88;5095355;28;20048;-82
2022/03/16 08:56:20;;;;;;;3.17;1.50;;;;;;;-3.04;76.43;100938.22;5094774;28;20373;-82
2022/03/16 08:58:51;;;;;;;1.92;1.45;;;;;;;-3.09;76.64;100952.44;5098631;28;20390;-83
2022/03/16 09:01:29;;;;;;;1.88;1.50;;;;;;;-3.13;77.15;100944.53;5090578;28;20275;-81
2022/03/16 09:04:01;;;;;;;2.55;1.58;;;;;;;-3.14;76.94;100942.81;5081846;28;20048;-80
2022/03/16 09:06:32;;;;;;;2.70;1.58;;;;;;;-3.92;76.84;100830.78;5088526;28;20043;-84
2022/03/16 09:09:03;;;;;;;1.67;1.50;;;;;;;-3.17;76.68;100940.97;5098487;28;20044;-82
2022/03/16 09:11:34;;;;;;;2.78;1.60;;;;;;;-3.17;76.54;100933.31;5097576;28;20051;-82
2022/03/16 09:14:05;;;;;;;6.22;3.47;;;;;;;-3.26;76.40;100932.84;5100072;28;20359;-80
2022/03/16 09:16:45;;;;;;;3.00;2.00;;;;;;;-3.25;76.56;100965.25;5094147;28;20082;-84
2022/03/16 09:19:21;;;;;;;;;;;;;;;-3.30;76.42;100946.25;5102197;28;20169;-85
2022/03/16 09:22:24;;;;;;;11.32;4.00;;;;;;;-4.52;76.19;100772.34;5091141;28;19947;-87
2022/03/16 09:25:26;;;;;;;;;;;;;;;;;;;;;
2022/03/16 09:28:36;;;;;;;12.82;6.07;;;;;;;-4.50;76.78;100807.34;5089033;28;20036;-87
2022/03/16 09:31:28;;;;;;;3.38;2.40;;;;;;;-4.37;77.01;100819.97;5097963;28;20048;-83
2022/03/16 09:36:57;;;;;;;13.50;6.07;;;;;;;-3.44;76.59;100952.34;5093768;28;20052;-81
2022/03/16 09:39:31;;;;;;;9.30;5.13;;;;;;;-3.52;77.47;100960.50;5080483;28;20328;-81
2022/03/16 09:42:03;;;;;;;5.00;3.38;;;;;;;-3.53;77.84;100963.84;5095233;28;20115;-82
2022/03/16 09:44:34;;;;;;;8.60;4.38;;;;;;;-3.61;78.41;100954.91;5080660;28;20036;-79
2022/03/16 09:47:08;;;;;;;9.85;5.22;;;;;;;-3.77;79.42;100942.13;5094823;28;20127;-81
2022/03/16 09:49:47;;;;;;;6.53;4.05;;;;;;;-3.77;80.48;100943.03;5102028;28;20119;-84
2022/03/16 09:52:31;;;;;;;5.32;2.70;;;;;;;-4.08;80.26;100897.16;5098357;28;20343;-85
2022/03/16 09:55:05;;;;;;;9.00;5.45;;;;;;;-3.73;81.26;100959.38;5104474;28;20409;-84
2022/03/16 09:57:44;;;;;;;8.63;4.18;;;;;;;-3.74;81.53;100967.88;5096066;28;20088;-83
2022/03/16 10:00:30;;;;;;;8.50;4.68;;;;;;;-4.68;81.29;100816.56;5095492;28;20063;-89
2022/03/16 10:03:04;;;;;;;8.57;3.25;;;;;;;-3.65;81.06;100972.56;5090933;28;20116;-80
2022/03/16 10:05:38;;;;;;;2.58;1.50;;;;;;;-3.78;81.20;100940.41;5087646;28;20044;-82
2022/03/16 10:08:10;;;;;;;4.65;2.60;;;;;;;-3.61;80.74;100970.25;5095511;28;20075;-82
2022/03/16 10:13:31;;;;;;;10.85;5.93;;;;;;;-3.98;80.50;100884.06;5084060;28;20052;-84
2022/03/16 10:16:31;;;;;;;;;;;;;;;;;;;;;
2022/03/16 10:19:39;;;;;;;;;;;;;;;;;;;;;
2022/03/16 10:22:30;;;;;;;1.95;1.70;;;;;;;-3.38;80.36;100963.75;5083299;28;20102;-83
2022/03/16 10:25:05;;;;;;;4.40;2.67;;;;;;;-3.31;80.33;100970.06;5088773;28;20125;-83
2022/03/16 10:27:38;;;;;;;3.85;2.75;;;;;;;-3.36;80.06;100972.38;5094704;28;20076;-83
2022/03/16 10:30:10;;;;;;;2.38;1.75;;;;;;;-4.21;80.45;100848.81;5095007;28;20324;-83
2022/03/16 10:32:53;;;;;;;2.40;1.95;;;;;;;-3.69;81.07;100961.31;5095725;28;20059;-84
2022/03/16 10:35:25;;;;;;;4.85;3.45;;;;;;;-3.72;81.68;100977.34;5089064;28;20044;-84
2022/03/16 10:38:09;;;;;;;5.35;3.17;;;;;;;-4.08;81.73;100930.31;5103767;28;20128;-84
2022/03/16 10:40:39;;;;;;;4.35;2.42;;;;;;;-4.03;81.81;100930.56;5092892;28;20080;-83
2022/03/16 10:49:04;;;;;;;5.90;2.45;;;;;;;-3.57;82.07;100992.59;5104019;28;20114;-84
2022/03/16 10:51:36;;;;;;;5.93;3.00;;;;;;;-3.41;82.19;100998.50;5090508;28;20253;-83
2022/03/16 10:54:27;;;;;;;6.78;3.95;;;;;;;-3.35;82.22;100978.38;5102817;28;20048;-83
2022/03/16 10:57:01;;;;;;;13.57;7.57;;;;;;;-3.39;81.62;100976.47;5101251;28;20355;-82
2022/03/16 10:59:34;;;;;;;12.77;6.50;;;;;;;-3.48;81.73;100982.84;5103231;28;20099;-82
2022/03/16 11:02:12;;;;;;;15.32;7.07;;;;;;;-3.53;82.17;100986.84;5094630;28;20089;-82
2022/03/16 11:04:44;;;;;;;17.98;9.07;;;;;;;-3.64;82.20;100990.53;5099290;28;20056;-82
2022/03/16 11:07:15;;;;;;;21.63;9.15;;;;;;;-3.96;82.59;100945.41;5104489;28;20060;-82
2022/03/16 11:09:50;;;;;;;18.15;8.90;;;;;;;-3.71;82.91;101011.44;5099902;28;20048;-83
2022/03/16 11:15:12;;;;;;;8.60;4.60;;;;;;;-3.56;82.83;100994.34;5095352;28;20081;-82
2022/03/16 11:17:43;;;;;;;10.25;5.55;;;;;;;-3.56;82.87;100988.38;5100701;28;20090;-83
2022/03/16 11:20:15;;;;;;;14.48;8.45;;;;;;;-3.62;82.91;100978.72;5094044;28;20104;-82
2022/03/16 11:26:12;;;;;;;10.15;6.40;;;;;;;-3.72;83.18;100989.22;5055190;28;20072;-82
2022/03/16 11:28:53;;;;;;;15.23;6.63;;;;;;;-3.79;84.13;100982.06;5091878;28;20052;-83
2022/03/16 11:31:28;;;;;;;17.70;7.65;;;;;;;-3.76;84.05;100980.53;5088073;28;20568;-83
2022/03/16 11:34:02;;;;;;;20.67;10.05;;;;;;;-3.87;84.44;100957.78;5083738;28;20052;-83
2022/03/16 11:36:35;;;;;;;11.65;6.43;;;;;;;-3.67;84.43;100992.91;5098690;28;20071;-82
2022/03/16 11:39:21;;;;;;;13.57;6.15;;;;;;;-3.80;84.05;100967.53;5103615;28;20056;-83
2022/03/16 11:41:55;;;;;;;6.25;3.53;;;;;;;-3.77;84.37;100975.34;5093942;28;20040;-82
2022/03/16 11:44:32;;;;;;;7.00;3.20;;;;;;;-3.66;84.48;100976.78;5097335;28;20040;-81
2022/03/16 11:47:38;;;;;;;7.13;3.33;;;;;;;-3.38;84.34;100991.00;5094471;28;20060;-82
2022/03/16 11:50:13;;;;;;;12.13;5.30;;;;;;;-3.28;84.27;100990.66;5088957;28;20368;-82
2022/03/16 11:53:05;;;;;;;7.18;4.25;;;;;;;-3.20;84.23;100986.81;5087764;28;20048;-82
2022/03/16 11:55:45;;;;;;;8.13;5.13;;;;;;;-3.11;84.01;100989.84;5096888;28;20111;-83
2022/03/16 11:58:30;;;;;;;9.85;4.47;;;;;;;-3.22;83.87;100969.63;5099373;28;20040;-83
2022/03/16 12:01:28;;;;;;;11.52;5.38;;;;;;;-3.13;83.64;100996.53;5102325;28;20043;-82
2022/03/16 12:04:11;;;;;;;9.05;4.60;;;;;;;-3.15;83.75;100998.13;5099923;28;20046;-84
2022/03/16 12:06:54;;;;;;;7.68;3.78;;;;;;;-3.36;83.49;100986.84;5094243;28;20102;-84
2022/03/16 12:09:33;;;;;;;6.90;3.90;;;;;;;-3.28;83.90;101006.00;5085838;28;20075;-84
2022/03/16 12:15:26;;;;;;;8.25;4.22;;;;;;;-3.17;83.79;101002.31;5089420;28;20120;-82
2022/03/16 12:18:23;;;;;;;4.55;3.20;;;;;;;-3.21;83.64;100996.97;5088251;28;20044;-83
2022/03/16 12:21:03;;;;;;;6.20;3.40;;;;;;;-3.32;83.41;100994.75;5100189;28;20309;-82
2022/03/16 12:25:08;;;;;;;9.45;3.67;;;;;;;-3.36;83.54;101002.19;5091048;28;20079;-87
2022/03/16 12:29:40;;;;;;;5.78;2.58;;;;;;;-3.53;83.90;100999.63;5092363;28;20162;-87
2022/03/16 12:33:12;;;;;;;;;;;;;;;;;;;;;
2022/03/16 12:39:31;;;;;;;5.25;2.70;;;;;;;-3.96;84.27;100914.78;4901239;29;20198;-87
2022/03/16 12:45:05;;;;;;;3.63;2.67;;;;;;;-3.59;84.08;100973.75;4903876;29;20119;-87